createdAt,value
2017-12-12T00:04:37.214Z,4.00
2017-12-12T00:10:05.365Z,4.00
2017-12-12T00:15:35.462Z,4.00
2017-12-12T00:21:03.822Z,4.00
2017-12-12T00:26:31.973Z,4.00
2017-12-12T00:32:00.202Z,4.00
2017-12-12T00:37:28.385Z,4.00
2017-12-12T00:42:56.585Z,4.00
2017-12-12T00:48:24.759Z,4.00
2017-12-12T00:53:53.845Z,4.00
2017-12-12T00:59:21.995Z,4.00
2017-12-12T01:04:50.147Z,4.00
2017-12-12T01:10:18.288Z,4.00
2017-12-12T01:15:46.683Z,4.00
2017-12-12T01:21:15.984Z,3.90
2017-12-12T01:26:45.132Z,3.90
2017-12-12T01:32:13.292Z,3.90
2017-12-12T01:37:41.430Z,3.90
2017-12-12T01:43:09.586Z,3.90
2017-12-12T01:48:41.992Z,4.00
2017-12-12T01:54:10.918Z,4.00
2017-12-12T01:59:39.849Z,4.00
2017-12-12T02:05:07.997Z,4.00
2017-12-12T02:10:36.904Z,4.10
2017-12-12T02:16:05.032Z,4.00
2017-12-12T02:21:33.175Z,4.10
2017-12-12T02:27:01.307Z,4.10
2017-12-12T02:32:29.449Z,4.10
2017-12-12T02:37:58.398Z,4.20
2017-12-12T02:43:26.579Z,4.10
2017-12-12T02:48:55.089Z,4.20
2017-12-12T02:54:23.590Z,4.20
2017-12-12T02:59:51.741Z,4.20
2017-12-12T03:05:20.925Z,4.20
2017-12-12T03:10:49.814Z,4.20
2017-12-12T03:16:17.964Z,4.30
2017-12-12T03:21:46.118Z,4.30
2017-12-12T03:27:14.529Z,4.30
2017-12-12T03:32:42.699Z,4.30
2017-12-12T03:38:28.254Z,4.30
2017-12-12T03:43:56.412Z,4.20
2017-12-12T03:49:24.570Z,4.20
2017-12-12T03:55:05.823Z,4.20
2017-12-12T04:00:34.768Z,4.20
2017-12-12T04:06:03.580Z,4.10
2017-12-12T04:11:31.724Z,4.20
2017-12-12T04:17:02.663Z,4.30
2017-12-12T04:22:30.815Z,4.30
2017-12-12T04:27:59.987Z,4.30
2017-12-12T04:33:28.643Z,4.40
2017-12-12T04:38:57.118Z,4.50
2017-12-12T04:44:25.242Z,4.50
2017-12-12T04:49:54.140Z,4.70
2017-12-12T04:55:22.267Z,4.70
2017-12-12T05:00:50.727Z,4.70
2017-12-12T05:06:19.263Z,4.70
2017-12-12T05:11:47.428Z,4.80
2017-12-12T05:17:15.564Z,4.80
2017-12-12T05:22:44.036Z,4.80
2017-12-12T05:28:26.459Z,4.90
2017-12-12T05:33:54.644Z,4.90
2017-12-12T05:39:24.512Z,4.90
2017-12-12T05:44:53.844Z,4.90
2017-12-12T05:50:23.969Z,4.90
2017-12-12T05:55:52.186Z,4.90
2017-12-12T06:01:20.362Z,4.90
2017-12-12T06:06:49.481Z,4.90
2017-12-12T06:12:17.657Z,4.90
2017-12-12T06:17:45.796Z,4.80
2017-12-12T06:23:13.957Z,4.70
2017-12-12T06:28:42.848Z,4.60
2017-12-12T06:34:10.986Z,4.40
2017-12-12T06:39:39.161Z,4.30
2017-12-12T06:45:08.239Z,4.00
2017-12-12T06:50:37.149Z,3.90
2017-12-12T06:56:05.288Z,3.80
2017-12-12T07:01:34.264Z,3.70
2017-12-12T07:07:02.414Z,3.70
2017-12-12T07:12:30.563Z,3.60
2017-12-12T07:17:58.771Z,3.50
2017-12-12T07:23:26.929Z,3.50
2017-12-12T07:28:55.912Z,3.40
2017-12-12T07:34:25.130Z,3.30
2017-12-12T07:39:53.329Z,3.30
2017-12-12T07:45:21.539Z,3.30
2017-12-12T07:50:50.450Z,3.10
2017-12-12T07:56:18.608Z,3.10
2017-12-12T08:01:47.524Z,3.10
2017-12-12T08:07:15.705Z,3.00
2017-12-12T08:12:43.859Z,3.00
2017-12-12T08:18:12.084Z,3.00
2017-12-12T08:23:40.260Z,2.90
2017-12-12T08:29:08.448Z,2.90
2017-12-12T08:34:37.388Z,2.90
2017-12-12T08:40:06.326Z,2.80
2017-12-12T08:45:35.286Z,2.90
2017-12-12T08:51:03.446Z,2.80
2017-12-12T08:56:31.583Z,2.90
2017-12-12T09:01:59.806Z,2.90
2017-12-12T09:07:28.018Z,3.00
2017-12-12T09:12:56.257Z,3.00
2017-12-12T09:18:24.422Z,3.00
2017-12-12T09:23:52.790Z,3.00
2017-12-12T09:29:21.877Z,2.90
2017-12-12T09:34:50.787Z,2.90
2017-12-12T09:40:18.944Z,2.90
2017-12-12T09:45:47.860Z,2.90
2017-12-12T09:51:16.004Z,2.90
2017-12-12T09:56:44.916Z,2.80
2017-12-12T10:02:13.085Z,2.80
2017-12-12T10:07:41.230Z,3.00
2017-12-12T10:13:19.833Z,3.10
2017-12-12T10:18:47.982Z,3.20
2017-12-12T10:24:16.123Z,3.30
2017-12-12T10:29:44.277Z,3.30
2017-12-12T10:35:12.427Z,3.30
2017-12-12T10:40:41.375Z,3.30
2017-12-12T10:46:10.284Z,3.20
2017-12-12T10:51:38.438Z,3.20
2017-12-12T10:57:06.587Z,3.20
2017-12-12T11:02:34.774Z,3.30
2017-12-12T11:08:03.860Z,3.30
2017-12-12T11:13:32.030Z,3.30
2017-12-12T11:19:00.204Z,3.40
2017-12-12T11:24:28.336Z,3.40
2017-12-12T11:29:56.512Z,3.40
2017-12-12T11:35:24.681Z,3.30
2017-12-12T11:40:52.824Z,3.20
2017-12-12T11:46:21.741Z,2.70
2017-12-12T11:51:49.888Z,2.70
2017-12-12T11:57:18.823Z,2.50
2017-12-12T12:02:47.739Z,2.40
2017-12-12T12:08:15.942Z,2.40
2017-12-12T12:13:44.109Z,2.40
2017-12-12T12:19:14.876Z,2.50
2017-12-12T12:24:43.034Z,2.40
2017-12-12T12:30:11.947Z,2.40
2017-12-12T12:35:40.953Z,2.30
2017-12-12T12:41:10.997Z,2.30
2017-12-12T12:46:39.151Z,2.30
2017-12-12T12:52:07.313Z,2.30
2017-12-12T12:57:39.270Z,2.30
2017-12-12T13:03:08.279Z,2.30
2017-12-12T13:08:36.448Z,2.20
2017-12-12T13:14:04.789Z,2.20
2017-12-12T13:19:33.784Z,2.10
2017-12-12T13:25:01.936Z,2.10
2017-12-12T13:30:30.093Z,2.00
2017-12-12T13:35:59.004Z,1.90
2017-12-12T13:41:27.150Z,1.90
2017-12-12T13:46:56.063Z,2.00
2017-12-12T13:52:24.203Z,2.00
2017-12-12T13:57:53.159Z,2.00
2017-12-12T14:03:21.315Z,1.90
2017-12-12T14:08:49.486Z,2.00
2017-12-12T14:14:18.401Z,2.00
2017-12-12T14:19:46.972Z,2.00
2017-12-12T14:25:15.116Z,2.00
2017-12-12T14:30:43.285Z,2.00
2017-12-12T14:36:12.198Z,2.00
2017-12-12T14:41:40.359Z,2.00
2017-12-12T14:47:08.521Z,2.00
2017-12-12T14:52:36.677Z,1.90
2017-12-12T14:58:05.588Z,1.90
2017-12-12T15:03:33.781Z,1.90
2017-12-12T15:09:01.934Z,1.80
2017-12-12T15:14:30.093Z,1.70
2017-12-12T15:19:58.999Z,1.70
2017-12-12T15:25:27.166Z,1.70
2017-12-12T15:30:55.371Z,1.70
2017-12-12T15:36:23.544Z,1.70
2017-12-12T15:41:51.685Z,1.70
2017-12-12T15:47:19.827Z,1.70
2017-12-12T15:52:48.777Z,1.70
2017-12-12T15:58:16.914Z,1.70
2017-12-12T16:03:45.048Z,1.70
2017-12-12T16:09:13.375Z,1.70
2017-12-12T16:14:41.654Z,1.80
2017-12-12T16:20:11.491Z,1.80
2017-12-12T16:25:40.416Z,1.90
2017-12-12T16:31:08.585Z,1.90
2017-12-12T16:36:36.799Z,1.90
2017-12-12T16:42:08.570Z,1.90
2017-12-12T16:47:37.504Z,1.90
2017-12-12T16:53:05.663Z,1.90
2017-12-12T16:58:35.242Z,1.90
2017-12-12T17:04:03.413Z,1.80
2017-12-12T17:09:31.615Z,1.80
2017-12-12T17:14:59.805Z,1.80
2017-12-12T17:20:28.012Z,1.80
2017-12-12T17:25:56.168Z,1.80
2017-12-12T17:31:24.334Z,1.70
2017-12-12T17:36:53.257Z,1.70
2017-12-12T17:42:24.685Z,1.70
2017-12-12T17:47:52.825Z,1.70
2017-12-12T17:53:30.825Z,1.70
2017-12-12T17:58:58.994Z,1.70
2017-12-12T18:04:27.203Z,1.70
2017-12-12T18:09:56.509Z,1.70
2017-12-12T18:15:24.682Z,1.70
2017-12-12T18:20:52.813Z,1.70
2017-12-12T18:26:20.967Z,1.70
2017-12-12T18:31:49.162Z,1.70
2017-12-12T18:37:17.340Z,1.70
2017-12-12T18:42:46.335Z,1.70
2017-12-12T18:48:14.481Z,1.70
2017-12-12T18:53:42.617Z,1.60
2017-12-12T18:59:10.865Z,1.60
2017-12-12T19:04:39.050Z,1.60
2017-12-12T19:10:07.247Z,1.50
2017-12-12T19:15:38.212Z,1.50
2017-12-12T19:21:06.368Z,1.50
2017-12-12T19:26:36.624Z,1.50
2017-12-12T19:32:04.843Z,1.50
2017-12-12T19:37:32.982Z,1.40
2017-12-12T19:43:01.153Z,1.40
2017-12-12T19:48:29.324Z,1.40
2017-12-12T19:53:57.470Z,1.50
2017-12-12T19:59:27.570Z,1.50
2017-12-12T20:04:55.702Z,1.50
2017-12-12T20:10:31.912Z,1.50
2017-12-12T20:16:05.061Z,1.50
2017-12-12T20:21:41.094Z,1.60
2017-12-12T20:27:12.101Z,1.60
2017-12-12T20:32:41.059Z,1.60
2017-12-12T20:38:09.241Z,1.60
2017-12-12T20:43:37.392Z,1.70
2017-12-12T20:49:05.570Z,1.70
2017-12-12T20:54:35.824Z,1.70
2017-12-12T21:00:04.982Z,1.60
2017-12-12T21:05:33.124Z,1.60
2017-12-12T21:11:01.265Z,1.60
2017-12-12T21:16:29.406Z,1.60
2017-12-12T21:21:57.557Z,1.60
2017-12-12T21:27:27.728Z,1.60
2017-12-12T21:32:55.887Z,1.60
2017-12-12T21:38:24.095Z,1.60
2017-12-12T21:44:07.294Z,1.60
2017-12-12T21:49:35.443Z,1.60
2017-12-12T21:55:03.738Z,1.60
2017-12-12T22:00:31.923Z,1.50
2017-12-12T22:06:00.095Z,1.50
2017-12-12T22:11:28.245Z,1.40
2017-12-12T22:16:56.444Z,1.30
2017-12-12T22:22:29.917Z,1.30
2017-12-12T22:28:02.992Z,1.10
2017-12-12T22:33:44.742Z,1.00
2017-12-12T22:39:13.865Z,1.00
2017-12-12T22:44:42.015Z,1.00
2017-12-12T22:50:11.116Z,0.90
2017-12-12T22:55:39.289Z,0.90
2017-12-12T23:01:07.588Z,0.90
2017-12-12T23:06:35.752Z,0.80
2017-12-12T23:12:07.198Z,0.80
2017-12-12T23:17:35.380Z,0.60
2017-12-12T23:23:03.528Z,0.50
2017-12-12T23:28:32.504Z,0.50
2017-12-12T23:34:02.657Z,0.40
2017-12-12T23:39:30.823Z,0.30
2017-12-12T23:45:11.290Z,0.20
2017-12-12T23:50:39.897Z,0.20
2017-12-12T23:56:08.127Z,0.10
